Aeroporto :
LOGIN :

Iscrizione | Disclaimer

   EN    FR    IT 

 










Sommario :    VFR   VFR Marginale   IFR   IFR Intensivo   IFR Molto Intensivo
Visibilità : 
Base nubi : 
>= 8 km
>= 3000ft
5 / 8 km
1000 / 3000 ft
1500m / 5 km
500 / 1000 ft
800 / 1500m
200 / 500 ft
< 800m
< 200 ft
Simboli :   Temporali  Nebbia  Neve Forte  Precipitazioni Forti  Vento > 20 kt
SIGMETs :   Varie  Temporali  Ghiacco  Turbolenza  Onda orograficha  Ceneri Vulcaniche






- Altitudine del aeroporto : 82 ft
- Codice IATA : ALG


DAAG - Alger Houari Boumedienne

ULTIMO METAR :
  • 071030Z 06004KT 360V110 9999 FEW020 SCT200 19/11 Q1025

METARs OBSOLETI :
  • 071000Z 10003KT 050V140 9999 FEW020 SCT200 19/11 Q1025
  • 070930Z 04003KT 310V120 9999 FEW020 SCT200 18/11 Q1025
  • 070900Z 05002KT 9999 FEW020 SCT200 17/11 Q1025
  • 070830Z 00000KT 9999 FEW020 BKN200 15/11 Q1025
  • 070800Z VRB01KT 9999 FEW020 BKN200 14/11 Q1025

TAF TAF DAAG
Valido dal 07 a 06 ore il 08 a 06 ore UTC


070500Z 0706/0806 VRB02KT 8000 FEW020 SCT200
PROB30
TEMPO 0706/0708 3000 BR
BECMG 0709/0712 04010KT
BECMG 0717/0720 VRB02KT



MetMap, La meteo Aeronautica in un colpo d'occhio ! - Copyright ORBIFLY Dicembre 2007 - Disclaimer

ORBIFLY MET'MAP TEAM :

Programmazione e sviluppo : Alexandra Zaïnal
Concezione : Baudouin d'Aumeries
Aiuto per la programmazione : Marc-Olivier Méhu
Supporto tecnico e logistico : Manuel Goepfert
Aiuto per la traduzione : Arnaldo La Scala

Contatto : metmap@orbifly.com




FONTI E CREDITI :

   NOAA